sensor_id;sensor_type;location;lat;lon;timestamp;P1;durP1;ratioP1;P2;durP2;ratioP2
27642;SDS011;15053;48.618;10.024;2024-03-08T00:00:34;44.17;;;22.15;;
27642;SDS011;15053;48.618;10.024;2024-03-08T00:03:01;44.53;;;23.08;;
27642;SDS011;15053;48.618;10.024;2024-03-08T00:05:28;43.85;;;22.10;;
27642;SDS011;15053;48.618;10.024;2024-03-08T00:07:55;44.63;;;22.23;;
27642;SDS011;15053;48.618;10.024;2024-03-08T00:10:22;52.03;;;23.50;;
27642;SDS011;15053;48.618;10.024;2024-03-08T00:12:50;49.10;;;23.17;;
27642;SDS011;15053;48.618;10.024;2024-03-08T00:15:18;47.40;;;22.45;;
27642;SDS011;15053;48.618;10.024;2024-03-08T00:17:45;46.00;;;22.50;;
27642;SDS011;15053;48.618;10.024;2024-03-08T00:20:14;42.72;;;21.20;;
27642;SDS011;15053;48.618;10.024;2024-03-08T00:22:41;41.45;;;21.63;;
27642;SDS011;15053;48.618;10.024;2024-03-08T00:25:08;44.45;;;20.75;;
27642;SDS011;15053;48.618;10.024;2024-03-08T00:27:36;40.03;;;21.27;;
27642;SDS011;15053;48.618;10.024;2024-03-08T00:30:03;46.47;;;21.52;;
27642;SDS011;15053;48.618;10.024;2024-03-08T00:32:30;44.25;;;22.40;;
27642;SDS011;15053;48.618;10.024;2024-03-08T00:34:58;42.60;;;20.80;;
27642;SDS011;15053;48.618;10.024;2024-03-08T00:37:24;48.83;;;21.95;;
27642;SDS011;15053;48.618;10.024;2024-03-08T00:39:51;45.72;;;21.55;;
27642;SDS011;15053;48.618;10.024;2024-03-08T00:42:18;44.25;;;21.08;;
27642;SDS011;15053;48.618;10.024;2024-03-08T00:44:46;46.00;;;20.83;;
27642;SDS011;15053;48.618;10.024;2024-03-08T00:47:13;49.67;;;21.83;;
27642;SDS011;15053;48.618;10.024;2024-03-08T00:49:40;49.22;;;22.83;;
27642;SDS011;15053;48.618;10.024;2024-03-08T00:52:07;48.33;;;21.17;;
27642;SDS011;15053;48.618;10.024;2024-03-08T00:54:35;46.72;;;21.42;;
27642;SDS011;15053;48.618;10.024;2024-03-08T00:57:04;39.70;;;19.58;;
27642;SDS011;15053;48.618;10.024;2024-03-08T00:59:33;40.88;;;20.30;;
27642;SDS011;15053;48.618;10.024;2024-03-08T01:02:00;45.78;;;20.70;;
27642;SDS011;15053;48.618;10.024;2024-03-08T01:04:28;41.22;;;20.08;;
27642;SDS011;15053;48.618;10.024;2024-03-08T01:06:55;49.45;;;22.02;;
27642;SDS011;15053;48.618;10.024;2024-03-08T01:09:23;42.92;;;21.00;;
27642;SDS011;15053;48.618;10.024;2024-03-08T01:11:50;39.70;;;19.13;;
27642;SDS011;15053;48.618;10.024;2024-03-08T01:14:16;46.55;;;22.08;;
27642;SDS011;15053;48.618;10.024;2024-03-08T01:16:43;47.33;;;21.75;;
27642;SDS011;15053;48.618;10.024;2024-03-08T01:19:09;39.40;;;19.50;;
27642;SDS011;15053;48.618;10.024;2024-03-08T01:21:36;44.88;;;20.13;;
27642;SDS011;15053;48.618;10.024;2024-03-08T01:24:03;46.28;;;20.85;;
27642;SDS011;15053;48.618;10.024;2024-03-08T01:26:29;42.63;;;21.40;;
27642;SDS011;15053;48.618;10.024;2024-03-08T01:28:56;42.42;;;20.20;;
27642;SDS011;15053;48.618;10.024;2024-03-08T01:31:23;40.50;;;20.02;;
27642;SDS011;15053;48.618;10.024;2024-03-08T01:33:49;45.05;;;21.35;;
27642;SDS011;15053;48.618;10.024;2024-03-08T01:36:16;44.13;;;20.48;;
27642;SDS011;15053;48.618;10.024;2024-03-08T01:38:44;43.25;;;21.50;;
27642;SDS011;15053;48.618;10.024;2024-03-08T01:41:11;43.55;;;21.17;;
27642;SDS011;15053;48.618;10.024;2024-03-08T01:43:39;44.33;;;21.55;;
27642;SDS011;15053;48.618;10.024;2024-03-08T01:46:05;44.78;;;21.10;;
27642;SDS011;15053;48.618;10.024;2024-03-08T01:48:33;41.92;;;20.38;;
27642;SDS011;15053;48.618;10.024;2024-03-08T01:51:00;44.95;;;20.88;;
27642;SDS011;15053;48.618;10.024;2024-03-08T01:53:26;42.78;;;21.67;;
27642;SDS011;15053;48.618;10.024;2024-03-08T01:55:56;45.63;;;21.27;;
27642;SDS011;15053;48.618;10.024;2024-03-08T01:58:24;45.95;;;21.25;;
27642;SDS011;15053;48.618;10.024;2024-03-08T02:00:54;44.35;;;21.70;;
27642;SDS011;15053;48.618;10.024;2024-03-08T02:03:23;48.13;;;22.10;;
27642;SDS011;15053;48.618;10.024;2024-03-08T02:05:50;45.13;;;21.20;;
27642;SDS011;15053;48.618;10.024;2024-03-08T02:08:17;43.80;;;20.10;;
27642;SDS011;15053;48.618;10.024;2024-03-08T02:10:45;43.47;;;21.17;;
27642;SDS011;15053;48.618;10.024;2024-03-08T02:13:11;47.45;;;20.27;;
27642;SDS011;15053;48.618;10.024;2024-03-08T02:15:54;46.70;;;21.20;;
27642;SDS011;15053;48.618;10.024;2024-03-08T02:18:21;49.13;;;21.50;;
27642;SDS011;15053;48.618;10.024;2024-03-08T02:20:50;48.63;;;22.40;;
27642;SDS011;15053;48.618;10.024;2024-03-08T02:23:19;43.72;;;20.10;;
27642;SDS011;15053;48.618;10.024;2024-03-08T02:25:46;43.08;;;20.52;;
27642;SDS011;15053;48.618;10.024;2024-03-08T02:28:13;45.30;;;22.15;;
27642;SDS011;15053;48.618;10.024;2024-03-08T02:30:41;49.30;;;21.63;;
27642;SDS011;15053;48.618;10.024;2024-03-08T02:33:07;48.63;;;21.88;;
27642;SDS011;15053;48.618;10.024;2024-03-08T02:35:37;48.08;;;21.20;;
27642;SDS011;15053;48.618;10.024;2024-03-08T02:38:04;43.97;;;21.25;;
27642;SDS011;15053;48.618;10.024;2024-03-08T02:40:30;46.85;;;22.75;;
27642;SDS011;15053;48.618;10.024;2024-03-08T02:42:58;46.97;;;21.65;;
27642;SDS011;15053;48.618;10.024;2024-03-08T02:45:24;46.50;;;22.95;;
27642;SDS011;15053;48.618;10.024;2024-03-08T02:47:51;51.42;;;22.02;;
27642;SDS011;15053;48.618;10.024;2024-03-08T02:50:18;47.05;;;20.67;;
27642;SDS011;15053;48.618;10.024;2024-03-08T02:52:45;46.92;;;21.05;;
27642;SDS011;15053;48.618;10.024;2024-03-08T02:55:12;48.53;;;22.00;;
27642;SDS011;15053;48.618;10.024;2024-03-08T02:57:42;48.53;;;22.88;;
27642;SDS011;15053;48.618;10.024;2024-03-08T03:00:10;49.17;;;23.52;;
27642;SDS011;15053;48.618;10.024;2024-03-08T03:02:37;47.97;;;22.10;;
27642;SDS011;15053;48.618;10.024;2024-03-08T03:05:04;48.97;;;22.63;;
27642;SDS011;15053;48.618;10.024;2024-03-08T03:07:32;51.38;;;22.15;;
27642;SDS011;15053;48.618;10.024;2024-03-08T03:10:02;43.85;;;20.92;;
27642;SDS011;15053;48.618;10.024;2024-03-08T03:12:28;50.72;;;23.33;;
27642;SDS011;15053;48.618;10.024;2024-03-08T03:14:59;45.53;;;21.98;;
27642;SDS011;15053;48.618;10.024;2024-03-08T03:17:26;47.60;;;23.27;;
27642;SDS011;15053;48.618;10.024;2024-03-08T03:19:52;49.20;;;22.73;;
27642;SDS011;15053;48.618;10.024;2024-03-08T03:22:19;47.38;;;22.23;;
27642;SDS011;15053;48.618;10.024;2024-03-08T03:24:46;52.88;;;22.77;;
27642;SDS011;15053;48.618;10.024;2024-03-08T03:27:13;50.25;;;23.25;;
27642;SDS011;15053;48.618;10.024;2024-03-08T03:29:42;47.05;;;23.25;;
27642;SDS011;15053;48.618;10.024;2024-03-08T03:32:12;46.20;;;22.30;;
27642;SDS011;15053;48.618;10.024;2024-03-08T03:34:39;50.00;;;22.70;;
27642;SDS011;15053;48.618;10.024;2024-03-08T03:37:06;50.35;;;24.10;;
27642;SDS011;15053;48.618;10.024;2024-03-08T03:39:34;54.67;;;24.58;;
27642;SDS011;15053;48.618;10.024;2024-03-08T03:42:06;54.85;;;24.60;;
27642;SDS011;15053;48.618;10.024;2024-03-08T03:44:33;50.67;;;22.95;;
27642;SDS011;15053;48.618;10.024;2024-03-08T03:46:59;48.90;;;23.50;;
27642;SDS011;15053;48.618;10.024;2024-03-08T03:49:27;54.22;;;22.88;;
27642;SDS011;15053;48.618;10.024;2024-03-08T03:51:53;53.35;;;23.33;;
27642;SDS011;15053;48.618;10.024;2024-03-08T03:54:20;51.33;;;23.58;;
27642;SDS011;15053;48.618;10.024;2024-03-08T03:56:46;48.85;;;22.45;;
27642;SDS011;15053;48.618;10.024;2024-03-08T03:59:13;48.90;;;23.42;;
27642;SDS011;15053;48.618;10.024;2024-03-08T04:01:41;48.28;;;23.75;;
27642;SDS011;15053;48.618;10.024;2024-03-08T04:04:09;52.78;;;23.42;;
27642;SDS011;15053;48.618;10.024;2024-03-08T04:06:36;53.95;;;22.77;;
27642;SDS011;15053;48.618;10.024;2024-03-08T04:09:02;49.38;;;22.40;;
27642;SDS011;15053;48.618;10.024;2024-03-08T04:11:29;49.58;;;24.10;;
27642;SDS011;15053;48.618;10.024;2024-03-08T04:13:56;49.65;;;22.70;;
27642;SDS011;15053;48.618;10.024;2024-03-08T04:16:23;55.85;;;24.90;;
27642;SDS011;15053;48.618;10.024;2024-03-08T04:18:50;59.22;;;26.00;;
27642;SDS011;15053;48.618;10.024;2024-03-08T04:21:17;52.75;;;24.58;;
27642;SDS011;15053;48.618;10.024;2024-03-08T04:23:45;48.15;;;24.27;;
27642;SDS011;15053;48.618;10.024;2024-03-08T04:26:12;50.78;;;24.08;;
27642;SDS011;15053;48.618;10.024;2024-03-08T04:28:41;52.20;;;25.92;;
27642;SDS011;15053;48.618;10.024;2024-03-08T04:31:08;52.67;;;23.38;;
27642;SDS011;15053;48.618;10.024;2024-03-08T04:33:34;53.70;;;24.52;;
27642;SDS011;15053;48.618;10.024;2024-03-08T04:36:02;55.28;;;24.42;;
27642;SDS011;15053;48.618;10.024;2024-03-08T04:38:31;56.70;;;26.55;;
27642;SDS011;15053;48.618;10.024;2024-03-08T04:40:57;52.85;;;24.88;;
27642;SDS011;15053;48.618;10.024;2024-03-08T04:43:26;54.75;;;25.10;;
27642;SDS011;15053;48.618;10.024;2024-03-08T04:45:53;55.92;;;24.45;;
27642;SDS011;15053;48.618;10.024;2024-03-08T04:48:19;54.92;;;24.48;;
27642;SDS011;15053;48.618;10.024;2024-03-08T04:50:47;51.25;;;24.63;;
27642;SDS011;15053;48.618;10.024;2024-03-08T04:53:13;54.35;;;25.50;;
27642;SDS011;15053;48.618;10.024;2024-03-08T04:55:40;54.75;;;25.33;;
27642;SDS011;15053;48.618;10.024;2024-03-08T04:58:06;49.63;;;24.65;;
27642;SDS011;15053;48.618;10.024;2024-03-08T05:00:33;52.38;;;25.40;;
27642;SDS011;15053;48.618;10.024;2024-03-08T05:03:00;56.17;;;24.60;;
27642;SDS011;15053;48.618;10.024;2024-03-08T05:05:27;55.45;;;25.25;;
27642;SDS011;15053;48.618;10.024;2024-03-08T05:07:55;53.42;;;24.67;;
27642;SDS011;15053;48.618;10.024;2024-03-08T05:10:21;51.75;;;25.70;;
27642;SDS011;15053;48.618;10.024;2024-03-08T05:12:48;50.75;;;23.95;;
27642;SDS011;15053;48.618;10.024;2024-03-08T05:15:15;58.90;;;25.48;;
27642;SDS011;15053;48.618;10.024;2024-03-08T05:17:41;52.13;;;24.73;;
27642;SDS011;15053;48.618;10.024;2024-03-08T05:20:08;52.47;;;24.58;;
27642;SDS011;15053;48.618;10.024;2024-03-08T05:22:38;48.38;;;23.50;;
27642;SDS011;15053;48.618;10.024;2024-03-08T05:25:06;52.28;;;23.60;;
27642;SDS011;15053;48.618;10.024;2024-03-08T05:27:36;53.88;;;26.30;;
27642;SDS011;15053;48.618;10.024;2024-03-08T05:30:04;53.65;;;24.63;;
27642;SDS011;15053;48.618;10.024;2024-03-08T05:32:31;49.65;;;24.30;;
27642;SDS011;15053;48.618;10.024;2024-03-08T05:34:58;52.88;;;24.98;;
27642;SDS011;15053;48.618;10.024;2024-03-08T05:37:24;51.80;;;23.58;;
27642;SDS011;15053;48.618;10.024;2024-03-08T05:39:51;54.67;;;25.98;;
27642;SDS011;15053;48.618;10.024;2024-03-08T05:42:17;52.05;;;25.52;;
27642;SDS011;15053;48.618;10.024;2024-03-08T05:44:44;58.65;;;24.63;;
27642;SDS011;15053;48.618;10.024;2024-03-08T05:47:10;59.08;;;24.63;;
27642;SDS011;15053;48.618;10.024;2024-03-08T05:49:37;55.08;;;26.60;;
27642;SDS011;15053;48.618;10.024;2024-03-08T05:52:04;53.70;;;25.05;;
27642;SDS011;15053;48.618;10.024;2024-03-08T05:54:30;54.33;;;25.02;;
27642;SDS011;15053;48.618;10.024;2024-03-08T05:56:59;53.20;;;26.05;;
27642;SDS011;15053;48.618;10.024;2024-03-08T05:59:26;62.92;;;27.23;;
27642;SDS011;15053;48.618;10.024;2024-03-08T06:01:53;61.55;;;26.75;;
27642;SDS011;15053;48.618;10.024;2024-03-08T06:04:19;55.25;;;25.05;;
27642;SDS011;15053;48.618;10.024;2024-03-08T06:06:46;65.28;;;27.95;;
27642;SDS011;15053;48.618;10.024;2024-03-08T06:09:17;55.75;;;26.10;;
27642;SDS011;15053;48.618;10.024;2024-03-08T06:11:50;53.20;;;25.60;;
27642;SDS011;15053;48.618;10.024;2024-03-08T06:14:17;57.03;;;25.52;;
27642;SDS011;15053;48.618;10.024;2024-03-08T06:16:45;53.42;;;25.90;;
27642;SDS011;15053;48.618;10.024;2024-03-08T06:19:13;54.08;;;26.23;;
27642;SDS011;15053;48.618;10.024;2024-03-08T06:21:39;61.13;;;26.92;;
27642;SDS011;15053;48.618;10.024;2024-03-08T06:24:07;56.33;;;25.50;;
27642;SDS011;15053;48.618;10.024;2024-03-08T06:26:33;53.72;;;25.40;;
27642;SDS011;15053;48.618;10.024;2024-03-08T06:29:03;61.58;;;26.23;;
27642;SDS011;15053;48.618;10.024;2024-03-08T06:31:33;54.67;;;24.95;;
27642;SDS011;15053;48.618;10.024;2024-03-08T06:33:59;58.35;;;26.13;;
27642;SDS011;15053;48.618;10.024;2024-03-08T06:36:26;53.58;;;26.38;;
27642;SDS011;15053;48.618;10.024;2024-03-08T06:38:53;51.70;;;23.70;;
27642;SDS011;15053;48.618;10.024;2024-03-08T06:41:20;58.35;;;25.08;;
27642;SDS011;15053;48.618;10.024;2024-03-08T06:43:47;54.80;;;23.88;;
27642;SDS011;15053;48.618;10.024;2024-03-08T06:46:15;55.25;;;26.20;;
27642;SDS011;15053;48.618;10.024;2024-03-08T06:48:42;65.63;;;27.48;;
27642;SDS011;15053;48.618;10.024;2024-03-08T06:51:09;56.85;;;25.38;;
27642;SDS011;15053;48.618;10.024;2024-03-08T06:53:37;52.58;;;24.75;;
27642;SDS011;15053;48.618;10.024;2024-03-08T06:56:05;58.58;;;26.35;;
27642;SDS011;15053;48.618;10.024;2024-03-08T06:58:31;60.00;;;26.15;;
27642;SDS011;15053;48.618;10.024;2024-03-08T07:00:59;63.30;;;27.90;;
27642;SDS011;15053;48.618;10.024;2024-03-08T07:03:27;56.35;;;25.52;;
27642;SDS011;15053;48.618;10.024;2024-03-08T07:05:56;61.92;;;26.38;;
27642;SDS011;15053;48.618;10.024;2024-03-08T07:08:24;64.22;;;26.15;;
27642;SDS011;15053;48.618;10.024;2024-03-08T07:10:53;69.57;;;30.55;;
27642;SDS011;15053;48.618;10.024;2024-03-08T07:13:20;67.50;;;27.45;;
27642;SDS011;15053;48.618;10.024;2024-03-08T07:15:47;56.17;;;26.65;;
27642;SDS011;15053;48.618;10.024;2024-03-08T07:18:14;54.28;;;26.13;;
27642;SDS011;15053;48.618;10.024;2024-03-08T07:20:41;57.33;;;25.42;;
27642;SDS011;15053;48.618;10.024;2024-03-08T07:23:09;57.33;;;25.55;;
27642;SDS011;15053;48.618;10.024;2024-03-08T07:25:37;53.92;;;24.40;;
27642;SDS011;15053;48.618;10.024;2024-03-08T07:28:05;61.97;;;26.70;;
27642;SDS011;15053;48.618;10.024;2024-03-08T07:30:35;59.45;;;25.63;;
27642;SDS011;15053;48.618;10.024;2024-03-08T07:33:11;61.17;;;25.88;;
27642;SDS011;15053;48.618;10.024;2024-03-08T07:35:39;57.55;;;25.13;;
27642;SDS011;15053;48.618;10.024;2024-03-08T07:38:07;55.95;;;25.05;;
27642;SDS011;15053;48.618;10.024;2024-03-08T07:40:36;55.08;;;23.88;;
27642;SDS011;15053;48.618;10.024;2024-03-08T07:43:05;60.25;;;26.10;;
27642;SDS011;15053;48.618;10.024;2024-03-08T07:45:32;57.70;;;25.63;;
27642;SDS011;15053;48.618;10.024;2024-03-08T07:47:59;56.05;;;25.00;;
27642;SDS011;15053;48.618;10.024;2024-03-08T07:50:26;56.65;;;25.30;;
27642;SDS011;15053;48.618;10.024;2024-03-08T07:52:52;59.45;;;25.80;;
27642;SDS011;15053;48.618;10.024;2024-03-08T07:55:19;63.15;;;26.98;;
27642;SDS011;15053;48.618;10.024;2024-03-08T07:57:45;66.00;;;26.15;;
27642;SDS011;15053;48.618;10.024;2024-03-08T08:00:14;61.95;;;26.23;;
27642;SDS011;15053;48.618;10.024;2024-03-08T08:02:44;64.25;;;26.85;;
27642;SDS011;15053;48.618;10.024;2024-03-08T08:05:11;55.53;;;24.27;;
27642;SDS011;15053;48.618;10.024;2024-03-08T08:07:39;60.92;;;25.58;;
27642;SDS011;15053;48.618;10.024;2024-03-08T08:10:10;64.70;;;25.33;;
27642;SDS011;15053;48.618;10.024;2024-03-08T08:12:44;67.53;;;25.60;;
27642;SDS011;15053;48.618;10.024;2024-03-08T08:15:12;59.25;;;26.10;;
27642;SDS011;15053;48.618;10.024;2024-03-08T08:17:39;61.90;;;27.08;;
27642;SDS011;15053;48.618;10.024;2024-03-08T08:20:05;57.45;;;23.95;;
27642;SDS011;15053;48.618;10.024;2024-03-08T08:22:32;60.80;;;26.90;;
27642;SDS011;15053;48.618;10.024;2024-03-08T08:24:58;57.97;;;23.15;;
27642;SDS011;15053;48.618;10.024;2024-03-08T08:27:25;65.65;;;26.75;;
27642;SDS011;15053;48.618;10.024;2024-03-08T08:29:52;58.97;;;27.25;;
27642;SDS011;15053;48.618;10.024;2024-03-08T08:32:18;59.13;;;25.10;;
27642;SDS011;15053;48.618;10.024;2024-03-08T08:34:46;60.53;;;26.73;;
27642;SDS011;15053;48.618;10.024;2024-03-08T08:37:13;60.20;;;26.55;;
27642;SDS011;15053;48.618;10.024;2024-03-08T08:39:39;73.85;;;28.75;;
27642;SDS011;15053;48.618;10.024;2024-03-08T08:42:06;68.25;;;27.80;;
27642;SDS011;15053;48.618;10.024;2024-03-08T08:44:35;64.75;;;27.85;;
27642;SDS011;15053;48.618;10.024;2024-03-08T08:47:02;63.33;;;26.50;;
27642;SDS011;15053;48.618;10.024;2024-03-08T08:49:38;64.78;;;26.65;;
27642;SDS011;15053;48.618;10.024;2024-03-08T08:52:04;68.72;;;27.13;;
27642;SDS011;15053;48.618;10.024;2024-03-08T08:54:42;59.67;;;26.58;;
27642;SDS011;15053;48.618;10.024;2024-03-08T08:57:08;62.80;;;24.67;;
27642;SDS011;15053;48.618;10.024;2024-03-08T08:59:35;59.28;;;25.83;;
27642;SDS011;15053;48.618;10.024;2024-03-08T09:02:02;62.10;;;27.58;;
27642;SDS011;15053;48.618;10.024;2024-03-08T09:04:32;68.07;;;28.93;;
27642;SDS011;15053;48.618;10.024;2024-03-08T09:06:59;62.65;;;25.00;;
27642;SDS011;15053;48.618;10.024;2024-03-08T09:09:25;61.53;;;24.83;;
27642;SDS011;15053;48.618;10.024;2024-03-08T09:11:52;60.05;;;24.50;;
27642;SDS011;15053;48.618;10.024;2024-03-08T09:14:20;61.25;;;26.02;;
27642;SDS011;15053;48.618;10.024;2024-03-08T09:16:47;62.50;;;26.48;;
27642;SDS011;15053;48.618;10.024;2024-03-08T09:19:13;57.75;;;24.90;;
27642;SDS011;15053;48.618;10.024;2024-03-08T09:21:41;61.90;;;25.83;;
27642;SDS011;15053;48.618;10.024;2024-03-08T09:24:07;66.43;;;27.33;;
27642;SDS011;15053;48.618;10.024;2024-03-08T09:26:34;57.33;;;25.88;;
27642;SDS011;15053;48.618;10.024;2024-03-08T09:29:01;64.95;;;25.77;;
27642;SDS011;15053;48.618;10.024;2024-03-08T09:31:27;62.00;;;27.52;;
27642;SDS011;15053;48.618;10.024;2024-03-08T09:33:54;57.35;;;24.27;;
27642;SDS011;15053;48.618;10.024;2024-03-08T09:36:20;60.37;;;25.60;;
27642;SDS011;15053;48.618;10.024;2024-03-08T09:38:47;57.60;;;25.70;;
27642;SDS011;15053;48.618;10.024;2024-03-08T09:41:14;64.75;;;27.13;;
27642;SDS011;15053;48.618;10.024;2024-03-08T09:43:41;58.65;;;25.15;;
27642;SDS011;15053;48.618;10.024;2024-03-08T09:46:07;62.53;;;26.98;;
27642;SDS011;15053;48.618;10.024;2024-03-08T09:48:34;58.25;;;26.75;;
27642;SDS011;15053;48.618;10.024;2024-03-08T09:51:02;59.38;;;26.33;;
27642;SDS011;15053;48.618;10.024;2024-03-08T09:53:30;62.78;;;26.42;;
27642;SDS011;15053;48.618;10.024;2024-03-08T09:55:56;62.58;;;26.40;;
27642;SDS011;15053;48.618;10.024;2024-03-08T09:58:23;58.90;;;26.48;;
27642;SDS011;15053;48.618;10.024;2024-03-08T10:00:58;58.65;;;24.90;;
27642;SDS011;15053;48.618;10.024;2024-03-08T10:03:28;53.33;;;24.48;;
27642;SDS011;15053;48.618;10.024;2024-03-08T10:05:56;63.17;;;25.42;;
27642;SDS011;15053;48.618;10.024;2024-03-08T10:08:27;52.38;;;24.52;;
27642;SDS011;15053;48.618;10.024;2024-03-08T10:10:56;60.75;;;28.38;;
27642;SDS011;15053;48.618;10.024;2024-03-08T10:13:25;57.33;;;25.45;;
27642;SDS011;15053;48.618;10.024;2024-03-08T10:15:56;56.00;;;25.08;;
27642;SDS011;15053;48.618;10.024;2024-03-08T10:18:22;59.45;;;26.38;;
27642;SDS011;15053;48.618;10.024;2024-03-08T10:21:02;62.90;;;26.27;;
27642;SDS011;15053;48.618;10.024;2024-03-08T10:23:33;57.35;;;27.15;;
27642;SDS011;15053;48.618;10.024;2024-03-08T10:26:10;58.78;;;25.02;;
27642;SDS011;15053;48.618;10.024;2024-03-08T10:28:39;57.53;;;25.98;;
27642;SDS011;15053;48.618;10.024;2024-03-08T10:31:05;56.83;;;24.42;;
27642;SDS011;15053;48.618;10.024;2024-03-08T10:33:32;59.33;;;26.27;;
27642;SDS011;15053;48.618;10.024;2024-03-08T10:35:59;66.13;;;28.77;;
27642;SDS011;15053;48.618;10.024;2024-03-08T10:38:27;55.72;;;25.50;;
27642;SDS011;15053;48.618;10.024;2024-03-08T10:40:59;52.63;;;25.23;;
27642;SDS011;15053;48.618;10.024;2024-03-08T10:43:28;53.63;;;23.77;;
27642;SDS011;15053;48.618;10.024;2024-03-08T10:46:06;49.45;;;22.08;;
27642;SDS011;15053;48.618;10.024;2024-03-08T10:48:44;46.85;;;22.15;;
27642;SDS011;15053;48.618;10.024;2024-03-08T10:51:13;48.67;;;23.38;;
27642;SDS011;15053;48.618;10.024;2024-03-08T10:53:41;50.10;;;23.67;;
27642;SDS011;15053;48.618;10.024;2024-03-08T10:56:10;58.47;;;26.30;;
27642;SDS011;15053;48.618;10.024;2024-03-08T10:58:37;53.47;;;25.10;;
27642;SDS011;15053;48.618;10.024;2024-03-08T11:01:05;52.58;;;23.10;;
27642;SDS011;15053;48.618;10.024;2024-03-08T11:08:42;55.47;;;24.90;;
27642;SDS011;15053;48.618;10.024;2024-03-08T11:11:44;51.58;;;23.98;;
27642;SDS011;15053;48.618;10.024;2024-03-08T11:14:03;54.05;;;26.35;;
27642;SDS011;15053;48.618;10.024;2024-03-08T11:18:58;50.65;;;24.70;;
27642;SDS011;15053;48.618;10.024;2024-03-08T11:21:32;48.55;;;23.83;;
27642;SDS011;15053;48.618;10.024;2024-03-08T11:26:44;46.00;;;23.67;;
27642;SDS011;15053;48.618;10.024;2024-03-08T11:34:40;51.30;;;24.45;;
27642;SDS011;15053;48.618;10.024;2024-03-08T11:37:16;47.55;;;22.02;;
27642;SDS011;15053;48.618;10.024;2024-03-08T11:39:53;48.75;;;23.77;;
27642;SDS011;15053;48.618;10.024;2024-03-08T11:42:25;51.72;;;25.05;;
27642;SDS011;15053;48.618;10.024;2024-03-08T11:44:54;51.67;;;24.35;;
27642;SDS011;15053;48.618;10.024;2024-03-08T11:47:21;49.60;;;24.75;;
27642;SDS011;15053;48.618;10.024;2024-03-08T11:49:48;49.80;;;23.80;;
27642;SDS011;15053;48.618;10.024;2024-03-08T11:52:16;46.45;;;22.67;;
27642;SDS011;15053;48.618;10.024;2024-03-08T11:54:53;47.10;;;23.20;;
27642;SDS011;15053;48.618;10.024;2024-03-08T11:57:24;46.00;;;22.45;;
27642;SDS011;15053;48.618;10.024;2024-03-08T11:59:51;49.13;;;23.85;;
27642;SDS011;15053;48.618;10.024;2024-03-08T12:02:22;41.50;;;22.35;;
27642;SDS011;15053;48.618;10.024;2024-03-08T12:04:56;41.38;;;22.52;;
27642;SDS011;15053;48.618;10.024;2024-03-08T12:07:24;40.00;;;21.92;;
27642;SDS011;15053;48.618;10.024;2024-03-08T12:12:51;44.92;;;23.13;;
27642;SDS011;15053;48.618;10.024;2024-03-08T12:17:47;47.47;;;24.92;;
27642;SDS011;15053;48.618;10.024;2024-03-08T12:20:15;45.38;;;23.85;;
27642;SDS011;15053;48.618;10.024;2024-03-08T12:22:43;41.90;;;22.92;;
27642;SDS011;15053;48.618;10.024;2024-03-08T12:25:11;48.25;;;24.80;;
27642;SDS011;15053;48.618;10.024;2024-03-08T12:27:39;43.00;;;24.00;;
27642;SDS011;15053;48.618;10.024;2024-03-08T12:30:19;43.80;;;23.20;;
27642;SDS011;15053;48.618;10.024;2024-03-08T12:33:00;42.45;;;22.88;;
27642;SDS011;15053;48.618;10.024;2024-03-08T12:35:28;39.67;;;21.30;;
27642;SDS011;15053;48.618;10.024;2024-03-08T12:37:56;38.80;;;21.15;;
27642;SDS011;15053;48.618;10.024;2024-03-08T12:40:27;41.45;;;24.08;;
27642;SDS011;15053;48.618;10.024;2024-03-08T12:42:55;39.33;;;22.40;;
27642;SDS011;15053;48.618;10.024;2024-03-08T12:45:22;41.17;;;24.27;;
27642;SDS011;15053;48.618;10.024;2024-03-08T12:47:50;42.50;;;23.10;;
27642;SDS011;15053;48.618;10.024;2024-03-08T12:50:17;37.80;;;21.73;;
27642;SDS011;15053;48.618;10.024;2024-03-08T12:52:44;38.83;;;23.45;;
27642;SDS011;15053;48.618;10.024;2024-03-08T12:55:11;37.40;;;21.65;;
27642;SDS011;15053;48.618;10.024;2024-03-08T12:57:38;37.35;;;22.15;;
27642;SDS011;15053;48.618;10.024;2024-03-08T13:00:05;38.70;;;22.83;;
27642;SDS011;15053;48.618;10.024;2024-03-08T13:02:32;41.97;;;23.83;;
27642;SDS011;15053;48.618;10.024;2024-03-08T13:04:58;35.58;;;21.70;;
27642;SDS011;15053;48.618;10.024;2024-03-08T13:07:25;41.88;;;23.80;;
27642;SDS011;15053;48.618;10.024;2024-03-08T13:09:53;36.65;;;20.98;;
27642;SDS011;15053;48.618;10.024;2024-03-08T13:12:20;38.20;;;21.50;;
27642;SDS011;15053;48.618;10.024;2024-03-08T13:14:47;38.45;;;21.67;;
27642;SDS011;15053;48.618;10.024;2024-03-08T13:17:14;38.60;;;22.80;;
27642;SDS011;15053;48.618;10.024;2024-03-08T13:19:41;37.15;;;22.13;;
27642;SDS011;15053;48.618;10.024;2024-03-08T13:22:10;35.47;;;21.27;;
27642;SDS011;15053;48.618;10.024;2024-03-08T13:24:39;35.60;;;20.23;;
27642;SDS011;15053;48.618;10.024;2024-03-08T13:27:07;37.28;;;21.02;;
27642;SDS011;15053;48.618;10.024;2024-03-08T13:29:48;33.13;;;20.20;;
27642;SDS011;15053;48.618;10.024;2024-03-08T13:32:15;35.10;;;19.13;;
27642;SDS011;15053;48.618;10.024;2024-03-08T13:34:43;33.47;;;20.92;;
27642;SDS011;15053;48.618;10.024;2024-03-08T13:37:11;32.83;;;19.85;;
27642;SDS011;15053;48.618;10.024;2024-03-08T13:39:38;33.80;;;19.75;;
27642;SDS011;15053;48.618;10.024;2024-03-08T13:42:07;34.83;;;20.58;;
27642;SDS011;15053;48.618;10.024;2024-03-08T13:44:36;35.80;;;19.65;;
27642;SDS011;15053;48.618;10.024;2024-03-08T13:47:03;31.92;;;19.80;;
27642;SDS011;15053;48.618;10.024;2024-03-08T13:49:31;33.50;;;20.85;;
27642;SDS011;15053;48.618;10.024;2024-03-08T13:51:58;36.70;;;20.17;;
27642;SDS011;15053;48.618;10.024;2024-03-08T13:54:27;32.17;;;20.13;;
27642;SDS011;15053;48.618;10.024;2024-03-08T13:56:59;30.33;;;19.92;;
27642;SDS011;15053;48.618;10.024;2024-03-08T13:59:26;35.40;;;18.38;;
27642;SDS011;15053;48.618;10.024;2024-03-08T14:01:56;33.72;;;20.23;;
27642;SDS011;15053;48.618;10.024;2024-03-08T14:04:23;35.13;;;20.33;;
27642;SDS011;15053;48.618;10.024;2024-03-08T14:06:50;33.60;;;19.73;;
27642;SDS011;15053;48.618;10.024;2024-03-08T14:09:26;30.20;;;18.90;;
27642;SDS011;15053;48.618;10.024;2024-03-08T14:11:52;30.30;;;19.55;;
27642;SDS011;15053;48.618;10.024;2024-03-08T14:14:20;28.75;;;19.05;;
27642;SDS011;15053;48.618;10.024;2024-03-08T14:16:49;29.27;;;18.67;;
27642;SDS011;15053;48.618;10.024;2024-03-08T14:19:20;28.70;;;17.98;;
27642;SDS011;15053;48.618;10.024;2024-03-08T14:21:47;28.40;;;18.77;;
27642;SDS011;15053;48.618;10.024;2024-03-08T14:24:19;27.83;;;17.50;;
27642;SDS011;15053;48.618;10.024;2024-03-08T14:26:46;27.63;;;17.35;;
27642;SDS011;15053;48.618;10.024;2024-03-08T14:29:15;29.08;;;17.38;;
27642;SDS011;15053;48.618;10.024;2024-03-08T14:31:41;28.17;;;17.30;;
27642;SDS011;15053;48.618;10.024;2024-03-08T14:34:09;27.70;;;17.63;;